Edmonton / Gartner Airport

CFQ7 · 艾伯塔, 加拿大

罗盘
风向 的 风向 010° Edmonton / Gartner Airport 9/27
风: 11 kt, 4 beaufort

2 kt

11 kt
改变
0 2.000 4.000 6.000 8.000 10.000
SCT 4.200 ft
OVC 10.000 ft
SPECI CYEG 050528Z 01011KT 20SM SCT042 OVC100 M11/M14 A3004 RMK SC3AC5 VIRGA PTCHS SLP221

METAR Edmonton / Gartner Airport - CFQ7

Edmonton / Gartner Airport是,加拿大中的小机场。 该机场有一条跑道: 9/27. 该领域的国际民航组织标志是CFQ7.

这份报告是针对2022年12月4日 22:28, 当地时间在Edmonton International Airport进行的。

机场观察

风向为010°,速度为11 kt。

可见度为20 mi。

有疏云,零星散落的云朵在4.200 ft的高度 和 乌云密布在10.000 ft的高度。 破损或更高的上限为10.000 ft。

温度为-11 °C,阵风为-22 °C。 露点为-14 °C,相对湿度为79%。 海平面上的气压为30,04 inHg (QNH)。

白天

今天,太阳从08:31升起,在16:17降落。 这适用于Edmonton / Gartner Airport,世界夏令时可能有所不同。 当地时间与世界标准时间之间的时差为-7 小时。 当前,没有夏令时有效。

公司介绍

我们没有关于这个机场的公司信息。

体会

到Vliegles.nl去找飞行课程,跳伞和其他飞行体验。 浏览页面,了解Edmonton / Gartner Airport附近所有可用的活动。 你也可以使用搜索功能来寻找你所在地附近的特定飞行课程、跳伞或其他飞行体验。

跑道

Id 标题 侧风 逆风 侧风 %
9/27 090°-270° 11 kt 2 kt 98 %

逆风成分最大的方向会被突出显示,并用于横风计算。 这并不一定意味着这个方向在使用。

乌云

4.200 ft SCT 疏云,零星散落的云朵
10.000 ft OVC 乌云密布

温度 & 天气

温度 -11 °C
露点 -14 °C
相对湿度 79%
风寒 -22 °C
Kp-index 1 (0-9)

评论

SLP221海平面压力为30,18 inHg (30,18 inHg)
SC3AC5 VIRGA PTCHS

白天

日出
08:32 (9:35)
中午
12:25
日落
16:17

小工具

你想在你的网站上有一个关于Edmonton / Gartner Airport的当前航空天气(METAR)的小部件吗?

显示HTML代码

我们和第三方通过cookies跟踪您在我们网站上的互联网行为。如果你继续,我们认为你同意我们的饼干政策